Archival Weather

Ambodedjo

Ambodedjo, Mali (GAMB)

Report from: Tuesday, June 6, 2023 9:00 PM GMT
Current time: Friday, April 19, 2024 8:15 AM GMT

Current weather – Weather history – Daily summaries
Weather forecast

Temperature36.0°C (96.8°F)
Heat index33.7°C (92.6°F)
Dew point6.0°C (42.8°F)
Winds 6 kts (3.1 m/s, 6.9 mph) North-Northeast (20°)
Clouds Sky clear
Altimeter29.80 in.Hg (1009 mB)
Relative humidity16 %
Density altitude2,659 ft. (811 m)
Remarks Ceiling and visibility OK
Flight conditions Visual Meteorological Conditions
Raw dataGAMB 062100Z 02006KT CAVOK 36/06 Q1009
An error has occurred. This application may no longer respond until reloaded. Reload 🗙